Avon, North Carolina
Current Conditions -  °F | °C
As of 4:51 PM on Thursday 23 Oct 2014 (Local Time) from KHSE Reporting Station
Clear Clear  
Wind Chill: 18°   Ceiling: Unl
Heat Index: 18°   Visibility: 10mi
Dew Point: 10°   Wind: 9mph
Humidity: 60%   Direction: 290°WNW
Pressure: 29.85"   Gusts: NA
Location:  35.35°N, 75.51°W
Report Text: KHSE 232051Z AUTO 29008KT 10SM CLR 18/10 A2985 RMK AO2 SLP109 T01780100 56007 TSNO
Loading
Personal Weather Stations






























Interactive Weather Map
Tropical Storm Tracking
New forecast layout! Learn more

10-Day Weather Forecast

Advertisements
Track Severe Weather on mobile